Tyngsboro, Massachusetts
Current Conditions -  °F | °C
As of 3:51 PM on Thursday 20 Nov 2014 (Local Time) from KASH Reporting Station
Clear Clear  
Wind Chill: 35°   Ceiling: Unl
Heat Index: 40°   Visibility: 10mi
Dew Point: 16°   Wind: 7mph
Humidity: 38%   Direction: 290°WNW
Pressure: 29.78"   Gusts: NA
Location:  42.68°N, 71.42°W
Report Text: KASH 202051Z 29006KT 10SM CLR 04/M09 A2978 RMK AO2 55002 T00441088 SLP338
Loading
Personal Weather Stations






























Interactive Weather Map New forecast layout! Learn more

10-Day Weather Forecast

Advertisements
Track Severe Weather on mobile